Time;durP1;ratioP1;P1;durP2;ratioP2;P2;SDS_P1;SDS_P2;PMS_P1;PMS_P2;Temp;Humidity;BMP_temperature;BMP_pressure;BME280_temperature;BME280_humidity;BME280_pressure;Samples;Min_cycle;Max_cycle;Signal;HPM_P1;HPM_P2
2022/01/19 00:00:26;;;;;;;63.85;29.25;;;5.00;99.90;;;;;;5063766;28;20449;-54
2022/01/19 00:02:51;;;;;;;62.92;29.08;;;5.00;99.90;;;;;;5068369;28;20107;-54
2022/01/19 00:05:17;;;;;;;66.68;29.60;;;5.00;99.90;;;;;;5055864;28;20047;-52
2022/01/19 00:07:42;;;;;;;62.38;29.85;;;5.00;99.90;;;;;;5050837;28;20119;-53
2022/01/19 00:10:11;;;;;;;66.72;29.85;;;5.00;99.90;;;;;;5056632;28;20048;-51
2022/01/19 00:12:38;;;;;;;65.47;29.73;;;5.00;99.90;;;;;;5051047;28;20041;-51
2022/01/19 00:15:06;;;;;;;66.72;32.25;;;5.00;99.90;;;;;;5054224;28;20135;-53
2022/01/19 00:17:31;;;;;;;59.30;28.63;;;5.00;99.90;;;;;;5059002;28;20079;-54
2022/01/19 00:19:57;;;;;;;64.00;30.98;;;5.00;99.90;;;;;;5058049;28;20534;-52
2022/01/19 00:22:22;;;;;;;65.45;29.95;;;5.00;99.90;;;;;;5062287;28;20490;-53
2022/01/19 00:24:48;;;;;;;64.85;28.73;;;5.00;99.90;;;;;;5054031;28;20052;-53
2022/01/19 00:27:14;;;;;;;63.22;30.08;;;5.00;99.90;;;;;;5058136;28;20040;-51
2022/01/19 00:29:39;;;;;;;56.72;28.60;;;4.90;99.90;;;;;;5053136;28;20041;-51
2022/01/19 00:32:05;;;;;;;58.78;28.40;;;4.90;99.90;;;;;;5061784;28;20049;-51
2022/01/19 00:34:31;;;;;;;69.55;30.50;;;4.80;99.90;;;;;;5066163;28;20048;-51
2022/01/19 00:36:56;;;;;;;70.00;28.70;;;4.80;99.90;;;;;;5066810;28;20036;-51
2022/01/19 00:39:24;;;;;;;59.92;28.10;;;4.70;99.90;;;;;;5064280;28;20080;-52
2022/01/19 00:41:50;;;;;;;59.97;29.17;;;4.70;99.90;;;;;;5058747;28;20040;-49
2022/01/19 00:44:16;;;;;;;62.28;28.67;;;4.60;99.90;;;;;;5062631;28;20410;-49
2022/01/19 00:46:41;;;;;;;56.80;26.88;;;4.60;99.90;;;;;;5064015;28;20478;-51
2022/01/19 00:49:07;;;;;;;63.90;29.15;;;4.40;99.90;;;;;;5056233;28;20037;-48
2022/01/19 00:51:32;;;;;;;59.78;28.98;;;4.40;99.90;;;;;;5061428;28;20040;-50
2022/01/19 00:53:58;;;;;;;62.20;28.75;;;4.40;99.90;;;;;;5065896;28;20536;-49
2022/01/19 00:56:23;;;;;;;64.43;28.98;;;4.30;99.90;;;;;;5056992;28;20124;-50
2022/01/19 00:58:49;;;;;;;68.28;29.60;;;4.20;99.90;;;;;;5054311;28;20469;-50
2022/01/19 01:01:14;;;;;;;70.32;29.35;;;4.10;99.90;;;;;;5063208;28;20044;-52
2022/01/19 01:03:40;;;;;;;67.13;28.60;;;4.00;99.90;;;;;;5053899;28;20055;-50
2022/01/19 01:06:06;;;;;;;69.43;29.65;;;3.90;99.90;;;;;;5064869;28;20045;-52
2022/01/19 01:08:31;;;;;;;75.53;30.70;;;3.80;99.90;;;;;;5059186;28;20479;-54
2022/01/19 01:10:58;;;;;;;70.38;29.08;;;3.80;99.90;;;;;;5067880;28;20086;-51
2022/01/19 01:15:25;;;;;;;64.00;28.08;;;3.70;99.90;;;;;;5064622;28;20123;-51
2022/01/19 01:16:31;;;;;;;69.28;28.95;;;3.70;99.90;;;;;;5065523;28;20102;-54
2022/01/19 01:18:58;;;;;;;66.07;28.33;;;3.60;99.90;;;;;;5061239;28;20116;-52
2022/01/19 01:21:24;;;;;;;66.03;28.15;;;;;;;;;;5057431;28;20520;-50
2022/01/19 01:23:50;;;;;;;66.40;28.10;;;;;;;;;;5060957;28;20376;-53
2022/01/19 01:26:16;;;;;;;81.03;32.03;;;;;;;;;;5068876;28;20044;-52
2022/01/19 01:28:42;;;;;;;84.35;31.42;;;;;;;;;;5058521;28;20105;-52
2022/01/19 01:31:09;;;;;;;87.28;31.35;;;;;;;;;;5067894;28;20052;-51
2022/01/19 01:33:35;;;;;;;91.13;33.38;;;;;;;;;;5059832;28;20436;-52
2022/01/19 01:36:02;;;;;;;81.68;30.70;;;;;;;;;;5059953;28;20045;-52
2022/01/19 01:38:28;;;;;;;87.93;31.35;;;;;;;;;;5065919;28;20173;-51
2022/01/19 01:40:54;;;;;;;85.70;30.98;;;;;;;;;;5056119;28;20037;-51
2022/01/19 01:43:20;;;;;;;88.65;31.52;;;;;;;;;;5067636;28;20056;-50
2022/01/19 01:45:50;;;;;;;98.40;32.47;;;;;;;;;;5065965;28;20040;-49
2022/01/19 01:48:19;;;;;;;96.13;30.80;;;;;;;;;;5057847;28;20107;-51
2022/01/19 01:53:36;;;;;;;94.50;30.50;;;;;;;;;;5067174;28;20098;-52
2022/01/19 01:56:04;;;;;;;88.50;31.00;;;;;;;;;;5069993;28;20083;-53
2022/01/19 01:58:31;;;;;;;;;;;3.00;99.90;;;;;;5057655;28;20072;-52
2022/01/19 02:00:57;;;;;;;118.78;31.13;;;3.10;99.90;;;;;;5056506;28;19921;-50
2022/01/19 02:03:23;;;;;;;108.30;30.98;;;3.10;99.90;;;;;;5061694;28;20314;-53
2022/01/19 02:08:41;;;;;;;90.88;29.85;;;3.00;99.90;;;;;;5058209;28;20052;-54
2022/01/19 02:16:36;;;;;;;99.20;28.63;;;2.90;99.90;;;;;;5058021;28;20520;-52
2022/01/19 02:24:22;;;;;;;91.45;30.33;;;2.80;99.90;;;;;;5054230;28;20044;-52
2022/01/19 02:27:03;;;;;;;83.88;29.27;;;2.80;99.90;;;;;;5052584;28;20041;-53
2022/01/19 02:42:42;;;;;;;80.88;28.25;;;2.50;99.90;;;;;;5057663;28;20060;-51
2022/01/19 02:50:23;;;;;;;72.25;27.60;;;2.40;99.90;;;;;;5067536;28;20179;-51
2022/01/19 02:52:49;;;;;;;78.15;28.00;;;2.40;99.90;;;;;;5065553;28;20136;-51
2022/01/19 02:55:14;;;;;;;67.38;25.92;;;2.40;99.90;;;;;;5068185;28;20494;-50
2022/01/19 02:57:41;;;;;;;70.00;27.35;;;2.30;99.90;;;;;;5059443;28;20041;-49
2022/01/19 03:11:05;;;;;;;60.67;26.35;;;2.30;99.90;;;;;;5053120;28;20088;-52
2022/01/19 03:13:31;;;;;;;73.10;27.45;;;2.20;99.90;;;;;;5051883;28;20060;-51
2022/01/19 03:15:56;;;;;;;65.90;28.15;;;2.20;99.90;;;;;;5055696;28;20134;-49
2022/01/19 03:18:22;;;;;;;71.45;28.08;;;2.20;99.90;;;;;;5054773;28;20052;-48
2022/01/19 03:20:47;;;;;;;75.13;28.08;;;2.10;99.90;;;;;;5061513;28;20043;-49
2022/01/19 03:23:22;;;;;;;61.40;26.33;;;2.10;99.90;;;;;;5055251;28;20041;-50
2022/01/19 03:25:49;;;;;;;67.90;27.23;;;2.00;99.90;;;;;;5065935;28;20046;-50
2022/01/19 03:28:16;;;;;;;71.10;29.27;;;2.00;99.90;;;;;;5056114;28;20128;-51
2022/01/19 03:30:43;;;;;;;69.20;27.42;;;2.00;99.90;;;;;;5069531;28;20136;-52
2022/01/19 03:33:09;;;;;;;64.10;27.08;;;2.00;99.90;;;;;;5067277;28;20033;-51
2022/01/19 03:35:35;;;;;;;66.63;27.38;;;2.00;99.90;;;;;;5061291;28;20052;-49
2022/01/19 03:38:00;;;;;;;70.15;28.00;;;2.00;99.90;;;;;;5052704;28;20040;-51
2022/01/19 03:40:26;;;;;;;77.55;28.25;;;2.00;99.90;;;;;;5055354;28;20052;-51
2022/01/19 03:42:52;;;;;;;76.18;27.85;;;2.00;99.90;;;;;;5062217;28;20151;-51
2022/01/19 03:45:18;;;;;;;64.63;27.73;;;2.00;99.90;;;;;;5057303;28;20554;-52
2022/01/19 03:47:54;;;;;;;64.50;25.67;;;1.90;99.90;;;;;;5063820;28;20036;-51
2022/01/19 03:50:20;;;;;;;62.15;26.23;;;1.90;99.90;;;;;;5062197;28;20044;-54
2022/01/19 03:52:45;;;;;;;68.15;27.42;;;1.80;99.90;;;;;;5069033;28;20044;-53
2022/01/19 03:55:11;;;;;;;72.32;29.55;;;1.80;99.90;;;;;;5062716;28;20045;-49
2022/01/19 03:57:37;;;;;;;65.32;26.77;;;1.80;99.90;;;;;;5052845;28;20044;-52
2022/01/19 04:00:05;;;;;;;68.97;27.10;;;1.80;99.90;;;;;;5061822;28;20375;-51
2022/01/19 04:02:31;;;;;;;67.32;27.48;;;1.80;99.90;;;;;;5057740;28;20111;-51
2022/01/19 04:05:03;;;;;;;75.95;29.48;;;1.80;99.90;;;;;;5059271;28;20048;-53
2022/01/19 04:07:29;;;;;;;73.07;30.40;;;1.80;99.90;;;;;;5062788;28;20091;-51
2022/01/19 04:09:54;;;;;;;67.15;28.35;;;1.80;99.90;;;;;;5066107;28;20171;-52
2022/01/19 04:12:40;;;;;;;74.00;30.70;;;1.70;99.90;;;;;;5068712;28;20094;-53
2022/01/19 04:15:06;;;;;;;82.60;33.50;;;1.70;99.90;;;;;;5059711;28;20479;-54
2022/01/19 04:17:32;;;;;;;93.88;38.13;;;1.80;99.90;;;;;;5061281;28;20063;-52
2022/01/19 04:19:58;;;;;;;98.65;38.30;;;1.90;99.90;;;;;;5059729;28;20459;-53
2022/01/19 04:22:23;;;;;;;98.95;37.42;;;1.90;99.90;;;;;;5055420;28;20040;-53
2022/01/19 04:24:49;;;;;;;94.07;36.03;;;2.00;99.90;;;;;;5057176;28;20513;-51
2022/01/19 04:29:52;;;;;;;83.85;34.60;;;2.00;99.90;;;;;;5058741;28;20072;-50
2022/01/19 04:32:24;;;;;;;80.85;31.88;;;1.90;99.90;;;;;;5057882;28;20055;-49
2022/01/19 04:34:51;;;;;;;80.20;31.25;;;1.80;99.90;;;;;;5062349;28;20044;-49
2022/01/19 05:03:03;;;;;;;78.85;30.45;;;1.60;99.90;;;;;;5065049;28;21523;-53
2022/01/19 05:06:53;;;;;;;69.65;29.27;;;1.50;99.90;;;;;;5065611;28;20044;-50
2022/01/19 05:09:38;;;;;;;86.10;28.38;;;1.50;99.90;;;;;;5057444;28;20179;-53
2022/01/19 05:14:48;;;;;;;231.70;25.45;;;1.30;99.90;;;;;;5063843;28;20528;-52
2022/01/19 05:17:14;;;;;;;199.90;24.15;;;1.20;99.90;;;;;;5057936;28;20052;-54
2022/01/19 05:19:39;;;;;;;228.95;25.17;;;1.10;99.90;;;;;;5066026;28;20087;-54
2022/01/19 05:22:05;;;;;;;142.57;21.88;;;1.00;99.90;;;;;;5056863;28;20721;-50
2022/01/19 05:24:31;;;;;;;197.68;23.30;;;1.00;99.90;;;;;;5068686;28;20458;-51
2022/01/19 05:26:56;;;;;;;143.55;19.25;;;1.00;99.90;;;;;;5060436;28;20075;-52
2022/01/19 05:29:22;;;;;;;166.25;21.10;;;0.90;99.90;;;;;;5064541;28;20033;-52
2022/01/19 05:31:47;;;;;;;126.75;20.83;;;0.90;99.90;;;;;;5065933;28;20128;-49
2022/01/19 05:34:13;;;;;;;128.63;21.75;;;0.90;99.90;;;;;;5059445;28;20057;-53
2022/01/19 05:36:38;;;;;;;153.65;22.10;;;0.80;99.90;;;;;;5059318;28;20107;-49
2022/01/19 05:39:05;;;;;;;138.88;23.35;;;0.90;99.90;;;;;;5054810;28;20071;-48
2022/01/19 05:41:31;;;;;;;156.50;23.98;;;0.90;99.90;;;;;;5058334;28;20087;-49
2022/01/19 05:43:57;;;;;;;183.57;24.33;;;0.90;99.90;;;;;;5058213;28;20041;-49
2022/01/19 05:46:23;;;;;;;150.25;23.98;;;0.90;99.90;;;;;;5065289;28;20045;-49
2022/01/19 05:48:48;;;;;;;195.65;26.38;;;0.80;99.90;;;;;;5057374;28;20046;-50
2022/01/19 05:51:14;;;;;;;113.50;24.90;;;0.80;99.90;;;;;;5053593;28;20517;-52
2022/01/19 05:53:40;;;;;;;77.45;25.05;;;0.80;99.90;;;;;;5060297;28;20053;-50
2022/01/19 05:56:06;;;;;;;89.85;26.58;;;0.90;99.90;;;;;;5062417;28;20043;-53
2022/01/19 05:58:32;;;;;;;83.60;31.83;;;0.90;99.90;;;;;;5059793;28;20544;-51
2022/01/19 06:00:58;;;;;;;117.55;33.40;;;0.90;99.90;;;;;;5063635;28;20053;-53
2022/01/19 06:03:23;;;;;;;101.25;33.00;;;1.10;99.90;;;;;;5065743;28;20036;-51
2022/01/19 06:05:49;;;;;;;94.00;33.83;;;1.10;99.90;;;;;;5060270;28;20387;-49
2022/01/19 06:08:29;;;;;;;90.40;34.47;;;1.20;99.90;;;;;;5070236;28;20049;-52
2022/01/19 06:10:55;;;;;;;94.53;36.15;;;1.30;99.90;;;;;;5059053;28;20048;-52
2022/01/19 06:13:23;;;;;;;104.80;38.10;;;1.40;99.90;;;;;;5056112;28;20045;-52
2022/01/19 06:15:49;;;;;;;100.10;37.97;;;1.50;99.90;;;;;;5060887;28;20061;-51
2022/01/19 06:18:16;;;;;;;92.00;35.95;;;1.70;99.90;;;;;;5067147;28;20032;-53
2022/01/19 06:20:43;;;;;;;104.07;37.30;;;1.70;99.90;;;;;;5061970;28;20044;-53
2022/01/19 06:23:08;;;;;;;89.50;36.13;;;1.80;99.90;;;;;;5067402;28;20044;-52
2022/01/19 06:25:34;;;;;;;84.18;35.63;;;1.90;99.90;;;;;;5064665;28;20056;-50
2022/01/19 06:28:01;;;;;;;90.38;35.88;;;2.00;99.90;;;;;;5056674;28;20037;-52
2022/01/19 06:30:27;;;;;;;96.68;36.80;;;2.00;99.90;;;;;;5065250;28;20044;-51
2022/01/19 06:32:53;;;;;;;97.35;39.75;;;2.00;99.90;;;;;;5063909;28;20548;-53
2022/01/19 06:35:19;;;;;;;91.28;38.75;;;2.10;99.90;;;;;;5068249;28;20052;-52
2022/01/19 06:37:45;;;;;;;92.78;39.70;;;2.10;99.90;;;;;;5058636;28;20049;-50
2022/01/19 06:40:13;;;;;;;95.43;39.78;;;2.10;99.90;;;;;;5060059;28;20048;-49
2022/01/19 06:42:39;;;;;;;90.43;37.35;;;2.20;99.90;;;;;;5061350;28;20131;-52
2022/01/19 06:45:05;;;;;;;83.22;37.28;;;2.20;99.90;;;;;;5060620;28;20179;-51
2022/01/19 06:47:31;;;;;;;78.10;37.38;;;2.20;99.90;;;;;;5058720;28;20563;-51
2022/01/19 06:49:58;;;;;;;71.75;36.25;;;2.30;99.90;;;;;;5056560;28;20127;-49
2022/01/19 06:52:24;;;;;;;67.82;37.78;;;2.30;99.90;;;;;;5063940;28;20452;-49
2022/01/19 06:54:49;;;;;;;64.63;36.67;;;2.30;99.90;;;;;;5068046;28;20059;-50
2022/01/19 06:57:15;;;;;;;60.42;36.05;;;2.30;99.90;;;;;;5066357;28;20461;-48
2022/01/19 06:59:40;;;;;;;61.78;36.70;;;2.40;99.90;;;;;;5055201;28;20528;-49
2022/01/19 07:02:06;;;;;;;55.88;34.08;;;2.40;99.90;;;;;;5064459;28;20040;-49
2022/01/19 07:04:32;;;;;;;56.53;35.08;;;2.40;99.90;;;;;;5055471;28;20399;-54
2022/01/19 07:06:58;;;;;;;57.42;36.33;;;2.40;99.90;;;;;;5060957;28;20122;-53
2022/01/19 07:09:23;;;;;;;57.08;36.72;;;2.40;99.90;;;;;;5057547;28;20111;-51
2022/01/19 07:11:49;;;;;;;57.55;36.72;;;2.40;99.90;;;;;;5052166;28;20041;-51
2022/01/19 07:14:17;;;;;;;61.30;38.55;;;2.50;99.90;;;;;;5051896;28;20552;-51
2022/01/19 07:16:43;;;;;;;56.17;37.53;;;2.50;99.90;;;;;;5060504;28;20503;-52
2022/01/19 07:19:10;;;;;;;55.58;36.35;;;2.50;99.90;;;;;;5061733;28;21354;-53
2022/01/19 07:21:35;;;;;;;57.10;38.10;;;2.60;99.90;;;;;;5060892;28;20050;-53
2022/01/19 07:24:01;;;;;;;55.35;38.85;;;2.60;99.90;;;;;;5059528;28;20044;-50
2022/01/19 07:26:27;;;;;;;55.10;38.42;;;2.60;99.90;;;;;;5064051;28;20504;-50
2022/01/19 07:28:52;;;;;;;53.63;37.95;;;2.60;99.90;;;;;;5051943;28;20073;-52
2022/01/19 07:31:18;;;;;;;55.35;37.67;;;2.70;99.90;;;;;;5053869;28;20053;-52
2022/01/19 07:33:44;;;;;;;52.13;37.88;;;2.70;99.90;;;;;;5057601;28;20041;-53
2022/01/19 07:36:09;;;;;;;47.83;35.95;;;2.70;99.90;;;;;;5056387;28;20037;-53
2022/01/19 07:38:35;;;;;;;46.63;35.97;;;2.70;99.90;;;;;;5061250;28;20049;-54
2022/01/19 07:41:00;;;;;;;51.55;37.10;;;2.70;99.90;;;;;;5059327;28;20044;-53
2022/01/19 07:43:26;;;;;;;48.88;36.45;;;2.80;99.90;;;;;;5063681;28;20045;-52
2022/01/19 07:45:51;;;;;;;49.05;36.35;;;2.80;99.90;;;;;;5056904;28;20121;-52
2022/01/19 07:48:17;;;;;;;47.42;36.05;;;2.80;99.90;;;;;;5053504;28;20086;-52
2022/01/19 07:50:43;;;;;;;47.08;36.33;;;2.80;99.90;;;;;;5061686;28;20037;-50
2022/01/19 07:53:08;;;;;;;52.75;35.70;;;2.80;99.90;;;;;;5071150;28;20067;-51
2022/01/19 07:55:34;;;;;;;52.30;37.55;;;2.80;99.90;;;;;;5071796;28;20040;-52
2022/01/19 07:58:01;;;;;;;49.65;36.03;;;2.90;99.90;;;;;;5059400;28;20045;-53
2022/01/19 08:00:28;;;;;;;48.58;37.95;;;2.90;99.90;;;;;;5057343;28;20044;-51
2022/01/19 08:02:53;;;;;;;53.17;37.67;;;2.90;99.90;;;;;;5065220;28;20546;-50
2022/01/19 08:05:19;;;;;;;51.13;38.00;;;2.90;99.90;;;;;;5076064;28;20155;-49
2022/01/19 08:07:45;;;;;;;52.25;37.28;;;3.00;99.90;;;;;;5073547;28;20422;-49
2022/01/19 08:10:11;;;;;;;53.75;38.90;;;3.00;99.90;;;;;;5075401;28;20059;-54
2022/01/19 08:12:37;;;;;;;50.97;38.70;;;3.00;99.90;;;;;;5074910;28;20130;-51
2022/01/19 08:15:04;;;;;;;50.97;37.28;;;3.00;99.90;;;;;;5074626;28;20466;-49
2022/01/19 08:17:29;;;;;;;50.80;37.03;;;3.00;99.90;;;;;;5075185;28;20064;-51
2022/01/19 08:19:56;;;;;;;54.78;38.17;;;3.10;99.90;;;;;;5075547;28;20360;-52
2022/01/19 08:22:22;;;;;;;49.75;38.05;;;3.10;99.90;;;;;;5075623;28;20048;-53
2022/01/19 08:24:48;;;;;;;51.25;37.38;;;3.10;99.90;;;;;;5075533;28;20045;-53
2022/01/19 08:27:14;;;;;;;50.67;37.13;;;3.20;99.90;;;;;;5074929;28;20044;-52
2022/01/19 08:29:39;;;;;;;47.42;37.03;;;3.20;99.90;;;;;;5060290;28;20084;-51
2022/01/19 08:32:06;;;;;;;53.83;37.15;;;3.20;99.90;;;;;;5058040;28;20095;-50
2022/01/19 08:34:32;;;;;;;53.97;38.70;;;3.30;99.90;;;;;;5055500;28;20067;-52
2022/01/19 08:36:59;;;;;;;53.53;39.08;;;3.30;99.90;;;;;;5055928;28;20080;-51
2022/01/19 08:39:25;;;;;;;55.17;38.65;;;3.30;99.90;;;;;;5070025;28;20459;-51
2022/01/19 08:41:51;;;;;;;52.42;38.22;;;3.30;99.90;;;;;;5075315;28;20048;-47
2022/01/19 08:44:17;;;;;;;54.97;38.65;;;3.30;99.90;;;;;;5075240;28;20445;-51
2022/01/19 08:46:44;;;;;;;54.03;38.97;;;3.30;99.90;;;;;;5071008;28;20072;-50
2022/01/19 08:49:10;;;;;;;56.28;38.47;;;3.30;99.90;;;;;;5074560;28;20040;-52
2022/01/19 08:51:35;;;;;;;52.78;37.40;;;3.40;99.90;;;;;;5075118;28;20047;-52
2022/01/19 08:54:01;;;;;;;55.75;39.45;;;3.30;99.90;;;;;;5074358;28;20123;-51
2022/01/19 08:56:27;;;;;;;53.42;38.25;;;3.40;99.90;;;;;;5070427;28;20048;-49
2022/01/19 08:58:52;;;;;;;58.10;39.55;;;3.40;99.90;;;;;;5074855;28;20087;-50
2022/01/19 09:01:18;;;;;;;61.25;40.78;;;3.40;99.90;;;;;;5069229;28;20044;-52
2022/01/19 09:03:43;;;;;;;59.17;39.17;;;3.40;99.90;;;;;;5064098;28;20047;-48
2022/01/19 09:06:09;;;;;;;63.83;41.33;;;3.40;99.90;;;;;;5074438;28;20093;-50
2022/01/19 09:08:35;;;;;;;54.63;38.15;;;3.50;99.90;;;;;;5074742;28;20071;-50
2022/01/19 09:11:02;;;;;;;57.97;39.17;;;3.50;99.90;;;;;;5075134;28;20044;-51
2022/01/19 09:13:27;;;;;;;63.08;40.15;;;3.50;99.90;;;;;;5060777;28;20041;-48
2022/01/19 09:15:53;;;;;;;64.10;40.72;;;3.50;99.90;;;;;;5072693;28;20474;-47
2022/01/19 09:18:19;;;;;;;59.78;40.28;;;3.60;99.90;;;;;;5061993;28;20154;-50
2022/01/19 09:20:45;;;;;;;59.25;39.25;;;3.60;99.90;;;;;;5074772;28;20460;-47
2022/01/19 09:23:10;;;;;;;64.95;40.70;;;3.60;99.90;;;;;;5074525;28;20067;-48
2022/01/19 09:25:36;;;;;;;65.65;41.20;;;3.70;99.90;;;;;;5074386;28;20081;-48
2022/01/19 09:28:02;;;;;;;64.43;40.67;;;3.70;99.90;;;;;;5073603;28;20040;-49
2022/01/19 09:30:28;;;;;;;61.63;40.15;;;3.70;99.90;;;;;;5069027;28;20128;-48
2022/01/19 09:33:07;;;;;;;61.28;41.70;;;3.70;99.90;;;;;;5074336;28;20584;-49
2022/01/19 09:35:51;;;;;;;68.63;41.92;;;3.80;99.90;;;;;;5074356;28;20044;-49
2022/01/19 09:38:19;;;;;;;66.72;41.40;;;3.80;99.90;;;;;;5054340;28;20525;-48
2022/01/19 09:40:44;;;;;;;69.13;43.53;;;3.80;99.90;;;;;;5085198;28;20044;-50
2022/01/19 09:43:10;;;;;;;65.80;41.60;;;3.90;99.90;;;;;;5074173;28;20047;-54
2022/01/19 09:45:36;;;;;;;70.80;42.95;;;3.90;99.90;;;;;;5058139;28;20081;-48
2022/01/19 09:48:02;;;;;;;70.07;43.45;;;4.00;99.90;;;;;;5073802;28;20385;-50
2022/01/19 09:50:28;;;;;;;71.07;41.17;;;4.00;99.90;;;;;;5074161;28;20084;-52
2022/01/19 09:52:54;;;;;;;75.85;43.78;;;4.00;99.90;;;;;;5073792;28;20079;-52
2022/01/19 09:55:20;;;;;;;67.05;42.03;;;4.00;99.90;;;;;;5071269;28;20049;-53
2022/01/19 09:57:45;;;;;;;71.50;43.15;;;4.00;99.90;;;;;;5053836;28;20049;-52
2022/01/19 10:00:11;;;;;;;74.60;43.80;;;4.00;99.90;;;;;;5054090;28;20116;-51
2022/01/19 10:02:37;;;;;;;71.18;44.63;;;4.00;99.90;;;;;;5054171;28;20475;-53
2022/01/19 10:05:09;;;;;;;77.38;45.53;;;4.10;99.90;;;;;;5062832;28;20136;-52
2022/01/19 10:07:35;;;;;;;78.75;47.03;;;4.10;99.90;;;;;;5063918;28;20068;-51
2022/01/19 10:10:07;;;;;;;79.43;45.88;;;4.10;99.90;;;;;;5057838;28;20459;-51
2022/01/19 10:18:22;;;;;;;86.25;48.85;;;4.20;99.90;;;;;;5065345;28;20049;-49
2022/01/19 10:21:02;;;;;;;;;;;4.30;99.90;;;;;;5059201;28;20128;-49
2022/01/19 10:23:57;;;;;;;79.80;43.58;;;4.30;99.90;;;;;;5053208;28;19924;-51
2022/01/19 10:26:26;;;;;;;89.82;48.08;;;4.30;99.90;;;;;;5061578;28;20040;-48
2022/01/19 10:29:04;;;;;;;93.53;49.17;;;4.40;99.90;;;;;;5055906;28;20921;-47
2022/01/19 10:31:33;;;;;;;91.63;48.00;;;4.40;99.90;;;;;;5066381;28;20043;-49
2022/01/19 10:34:19;;;;;;;88.70;48.88;;;4.30;99.90;;;;;;5068500;28;20032;-48
2022/01/19 10:36:46;;;;;;;96.13;50.35;;;4.40;99.90;;;;;;5066173;28;20044;-49
2022/01/19 10:39:12;;;;;;;92.73;49.70;;;4.40;99.90;;;;;;5072656;28;20048;-50
2022/01/19 10:42:04;;;;;;;94.10;49.45;;;4.40;99.90;;;;;;5069680;28;20590;-49
2022/01/19 10:44:33;;;;;;;94.93;49.50;;;4.30;99.90;;;;;;5052305;28;20094;-49
2022/01/19 10:46:58;;;;;;;91.13;49.45;;;4.30;99.90;;;;;;5066687;28;20044;-49
2022/01/19 10:49:25;;;;;;;102.53;52.00;;;4.30;99.90;;;;;;5060671;28;20125;-54
2022/01/19 10:51:57;;;;;;;99.47;51.55;;;4.30;99.90;;;;;;5060687;28;20068;-51
2022/01/19 10:54:26;;;;;;;98.60;49.55;;;4.30;99.90;;;;;;5068475;28;20064;-50
2022/01/19 10:56:57;;;;;;;98.80;50.60;;;4.20;99.90;;;;;;5058590;28;20075;-50
2022/01/19 10:59:31;;;;;;;95.80;49.15;;;4.20;99.90;;;;;;5051431;28;20065;-49
2022/01/19 11:01:59;;;;;;;97.60;48.83;;;4.20;99.90;;;;;;5056832;28;20156;-51
2022/01/19 11:04:33;;;;;;;94.72;48.17;;;4.20;99.90;;;;;;5055974;28;20041;-51
2022/01/19 11:07:07;;;;;;;91.72;48.40;;;4.20;99.90;;;;;;5063864;28;20055;-49
2022/01/19 11:09:43;;;;;;;88.47;46.30;;;4.20;99.90;;;;;;5067645;28;20052;-49
2022/01/19 11:12:12;;;;;;;88.18;47.17;;;4.20;99.90;;;;;;5063400;28;20086;-53
2022/01/19 11:14:40;;;;;;;95.53;49.38;;;4.10;99.90;;;;;;5069792;28;20042;-51
2022/01/19 11:17:07;;;;;;;100.28;51.78;;;4.20;99.90;;;;;;5062464;28;20061;-48
2022/01/19 11:19:37;;;;;;;89.35;48.53;;;4.20;99.90;;;;;;5066747;28;20131;-49
2022/01/19 11:22:19;;;;;;;92.70;47.92;;;4.20;99.90;;;;;;5068184;28;20529;-50
2022/01/19 11:25:15;;;;;;;88.80;47.28;;;4.20;99.90;;;;;;5063814;28;20041;-51
2022/01/19 11:27:43;;;;;;;86.63;46.97;;;4.20;99.90;;;;;;5061823;28;20041;-51
2022/01/19 11:30:14;;;;;;;;;;;4.20;99.90;;;;;;5062440;28;20486;-51
2022/01/19 11:32:41;;;;;;;83.32;47.67;;;4.20;99.90;;;;;;5055388;28;20297;-52
2022/01/19 11:35:07;;;;;;;87.72;45.15;;;4.20;99.90;;;;;;5063035;28;20099;-51
2022/01/19 11:37:38;;;;;;;92.72;48.28;;;4.20;99.90;;;;;;5067730;28;20040;-49
2022/01/19 11:40:09;;;;;;;84.80;46.63;;;4.30;99.90;;;;;;5063826;28;20086;-48
2022/01/19 11:42:35;;;;;;;84.90;46.83;;;4.30;99.90;;;;;;5062140;28;20071;-48
2022/01/19 11:45:03;;;;;;;89.18;49.38;;;4.20;99.90;;;;;;5063708;28;20102;-48
2022/01/19 11:47:30;;;;;;;86.78;47.72;;;4.30;99.90;;;;;;5060884;28;20048;-48
2022/01/19 11:50:13;;;;;;;84.57;47.80;;;4.20;99.90;;;;;;5068466;28;20084;-49
2022/01/19 11:52:40;;;;;;;82.43;47.33;;;4.20;99.90;;;;;;5068507;28;20575;-48
2022/01/19 11:55:18;;;;;;;82.38;45.97;;;4.20;99.90;;;;;;5068873;28;20131;-52
2022/01/19 11:57:46;;;;;;;84.32;48.08;;;4.20;99.90;;;;;;5064961;28;20037;-49
2022/01/19 12:00:17;;;;;;;83.32;45.70;;;4.20;99.90;;;;;;5055391;28;20045;-52
2022/01/19 12:02:51;;;;;;;92.45;49.58;;;4.20;99.90;;;;;;5063310;28;20419;-50
2022/01/19 12:05:20;;;;;;;80.50;45.33;;;4.20;99.90;;;;;;5053013;28;20063;-51
2022/01/19 12:07:52;;;;;;;83.53;48.17;;;4.20;99.90;;;;;;5051647;28;20037;-50
2022/01/19 12:10:37;;;;;;;85.15;48.25;;;4.20;99.90;;;;;;5069704;28;20056;-51
2022/01/19 12:16:29;;;;;;;86.82;47.90;;;4.20;99.90;;;;;;5064291;28;20364;-50
2022/01/19 12:19:13;;;;;;;83.82;49.45;;;4.20;99.90;;;;;;5058877;28;20122;-52
2022/01/19 12:21:55;;;;;;;84.10;49.22;;;4.20;99.90;;;;;;5071346;28;20047;-49
2022/01/19 12:24:34;;;;;;;85.80;51.15;;;4.30;99.90;;;;;;5070466;28;20036;-50
2022/01/19 12:27:22;;;;;;;90.05;50.03;;;4.30;99.90;;;;;;5055270;28;20040;-50
2022/01/19 12:29:52;;;;;;;81.35;49.28;;;4.30;99.90;;;;;;5050946;28;20511;-51
2022/01/19 12:32:18;;;;;;;88.82;51.78;;;4.40;99.90;;;;;;5059545;28;20059;-48
2022/01/19 12:34:54;;;;;;;85.45;48.08;;;4.40;99.90;;;;;;5070144;28;20053;-52
2022/01/19 12:37:46;;;;;;;82.97;49.45;;;4.50;99.90;;;;;;5071037;28;20045;-54
2022/01/19 12:40:18;;;;;;;83.95;47.58;;;4.50;99.90;;;;;;5071056;28;20047;-52
2022/01/19 12:42:55;;;;;;;81.15;48.70;;;4.50;99.90;;;;;;5070463;28;20037;-51
2022/01/19 12:45:26;;;;;;;77.50;48.35;;;4.60;99.90;;;;;;5072928;28;20052;-49
2022/01/19 12:48:06;;;;;;;81.82;50.60;;;4.50;99.90;;;;;;5073790;28;20075;-50
2022/01/19 12:50:48;;;;;;;83.13;48.35;;;4.50;99.90;;;;;;5074619;28;20044;-49
2022/01/19 12:53:18;;;;;;;77.60;48.70;;;4.50;99.90;;;;;;5074409;28;20060;-48
2022/01/19 12:55:49;;;;;;;81.38;48.35;;;4.60;99.90;;;;;;5069050;28;20103;-48
2022/01/19 12:58:23;;;;;;;78.55;50.30;;;4.60;99.90;;;;;;5054445;28;20048;-48
2022/01/19 13:00:53;;;;;;;78.57;49.65;;;4.60;99.90;;;;;;5054642;28;20148;-49
2022/01/19 13:03:28;;;;;;;78.63;48.25;;;4.50;99.90;;;;;;5054054;28;20403;-48
2022/01/19 13:06:02;;;;;;;78.43;49.30;;;4.60;99.90;;;;;;5054425;28;20044;-48
2022/01/19 13:08:37;;;;;;;80.75;49.35;;;4.60;99.90;;;;;;5052929;28;20045;-49
2022/01/19 13:11:18;;;;;;;84.15;49.42;;;4.60;99.90;;;;;;5062231;28;20112;-53
2022/01/19 13:13:46;;;;;;;74.05;46.97;;;4.60;99.90;;;;;;5073654;28;20105;-50
2022/01/19 13:16:11;;;;;;;87.20;51.30;;;4.60;99.90;;;;;;5073979;28;20323;-49
2022/01/19 13:18:42;;;;;;;85.85;50.65;;;4.60;99.90;;;;;;5074058;28;20113;-54
2022/01/19 13:21:12;;;;;;;86.05;50.95;;;4.60;99.90;;;;;;5074035;28;20537;-53
2022/01/19 13:23:57;;;;;;;79.85;50.45;;;4.60;99.90;;;;;;5072276;28;20475;-51
2022/01/19 13:26:34;;;;;;;77.78;48.72;;;4.60;99.90;;;;;;5073705;28;20060;-48
2022/01/19 13:29:31;;;;;;;75.25;48.10;;;4.60;99.90;;;;;;5074285;28;20051;-51
2022/01/19 13:32:07;;;;;;;75.38;47.58;;;4.60;99.90;;;;;;5053869;28;20108;-51
2022/01/19 13:34:58;;;;;;;76.68;47.67;;;4.60;99.90;;;;;;5053986;28;20064;-50
2022/01/19 13:37:37;;;;;;;76.75;47.97;;;4.60;99.90;;;;;;5053940;28;20056;-52
2022/01/19 13:40:13;;;;;;;74.93;48.33;;;4.70;99.90;;;;;;5060976;28;20044;-51
2022/01/19 13:42:44;;;;;;;76.07;47.33;;;4.70;99.90;;;;;;5063822;28;20051;-51
2022/01/19 13:46:13;;;;;;;74.57;46.55;;;4.70;99.90;;;;;;5053616;28;20055;-52
2022/01/19 13:48:27;;;;;;;72.95;46.05;;;4.70;99.90;;;;;;5056139;28;20049;-50
2022/01/19 13:50:59;;;;;;;81.55;48.03;;;4.70;99.90;;;;;;5057905;28;20032;-53
2022/01/19 13:53:40;;;;;;;80.68;47.67;;;4.70;99.90;;;;;;5062756;28;20102;-51
2022/01/19 13:56:09;;;;;;;80.65;48.33;;;4.70;99.90;;;;;;5052867;28;20132;-53
2022/01/19 13:58:57;;;;;;;76.63;46.50;;;4.80;99.90;;;;;;5053374;28;20155;-48
2022/01/19 14:01:33;;;;;;;76.47;47.13;;;4.80;99.90;;;;;;5053476;28;20049;-54
2022/01/19 14:04:04;;;;;;;74.05;46.47;;;4.90;99.90;;;;;;5053084;28;20044;-52
2022/01/19 14:06:38;;;;;;;78.63;48.20;;;4.90;99.90;;;;;;5054189;28;20049;-50
2022/01/19 14:09:35;;;;;;;75.47;47.38;;;4.90;99.90;;;;;;5053201;28;20056;-50
2022/01/19 14:12:08;;;;;;;67.05;45.42;;;4.90;99.90;;;;;;5053167;28;20060;-49
2022/01/19 14:14:37;;;;;;;69.38;45.45;;;4.90;99.90;;;;;;5053511;28;20049;-52
2022/01/19 14:17:08;;;;;;;68.53;46.50;;;4.90;99.90;;;;;;5052823;28;20052;-47